Time;durP1;ratioP1;P1;durP2;ratioP2;P2;SDS_P1;SDS_P2;PMS_P1;PMS_P2;Temp;Humidity;BMP_temperature;BMP_pressure;BME280_temperature;BME280_humidity;BME280_pressure;Samples;Min_cycle;Max_cycle;Signal;HPM_P1;HPM_P2
2021/07/16 00:01:46;;;;;;;13.75;6.30;;;;;;;22.43;69.26;101164.50;5010046;28;20152;-73
2021/07/16 00:04:11;;;;;;;16.17;5.07;;;;;;;22.46;69.47;101161.94;5014667;28;20475;-73
2021/07/16 00:06:37;;;;;;;17.60;5.15;;;;;;;22.45;68.72;101164.56;5007024;28;20113;-73
2021/07/16 00:09:04;;;;;;;11.60;4.28;;;;;;;22.44;69.05;101168.88;5011538;28;20430;-73
2021/07/16 00:11:30;;;;;;;16.77;5.35;;;;;;;22.41;69.26;101173.25;5011443;28;20042;-73
2021/07/16 00:13:56;;;;;;;16.83;5.43;;;;;;;22.35;69.29;101174.06;5011791;28;20080;-73
2021/07/16 00:16:22;;;;;;;17.75;5.55;;;;;;;22.34;69.25;101177.53;5011489;28;20430;-73
2021/07/16 00:18:47;;;;;;;15.43;4.80;;;;;;;22.33;69.05;101181.03;4979085;28;20103;-73
2021/07/16 00:21:13;;;;;;;14.40;4.72;;;;;;;22.31;69.19;101188.00;5012768;28;20025;-73
2021/07/16 00:23:39;;;;;;;13.45;4.65;;;;;;;22.27;69.30;101191.47;4995019;28;20038;-73
2021/07/16 00:26:04;;;;;;;18.55;5.20;;;;;;;22.25;69.21;101193.22;5011417;28;20088;-73
2021/07/16 00:28:30;;;;;;;8.88;4.35;;;;;;;22.23;69.08;101200.19;5012826;28;20383;-73
2021/07/16 00:30:55;;;;;;;13.55;4.78;;;;;;;22.22;69.09;101195.81;5028030;28;20105;-73
2021/07/16 00:33:21;;;;;;;19.92;5.30;;;;;;;22.21;69.06;101191.41;5013042;28;20360;-73
2021/07/16 00:35:46;;;;;;;16.70;5.03;;;;;;;22.17;68.95;101195.75;5011231;28;20057;-73
2021/07/16 00:38:13;;;;;;;16.30;4.70;;;;;;;22.16;68.97;101184.38;5012722;28;20026;-73
2021/07/16 00:40:39;;;;;;;11.18;5.28;;;;;;;22.12;68.81;101186.94;4995064;28;20494;-73
2021/07/16 00:43:05;;;;;;;13.43;5.82;;;;;;;22.13;69.02;101183.47;5012153;28;20037;-73
2021/07/16 00:45:31;;;;;;;10.57;4.38;;;;;;;22.08;68.76;101188.69;5027903;28;20356;-73
2021/07/16 00:47:56;;;;;;;14.70;5.25;;;;;;;22.06;68.98;101190.41;5027764;28;20025;-73
2021/07/16 00:50:26;;;;;;;17.00;5.85;;;;;;;22.03;68.78;101193.00;5012687;28;20032;-73
2021/07/16 00:52:55;;;;;;;14.80;5.05;;;;;;;22.03;68.73;101193.00;5011066;28;20034;-73
2021/07/16 00:55:20;;;;;;;12.73;4.65;;;;;;;22.00;69.04;101204.31;4994396;28;20443;-73
2021/07/16 00:57:47;;;;;;;18.77;5.00;;;;;;;21.95;69.41;101205.16;5012375;28;20057;-73
2021/07/16 01:00:13;;;;;;;19.60;5.40;;;;;;;21.91;69.09;101200.72;4994878;28;20030;-73
2021/07/16 01:02:38;;;;;;;14.65;4.97;;;;;;;21.87;69.31;101198.06;4973342;28;20088;-73
2021/07/16 01:05:05;;;;;;;11.55;5.30;;;;;;;21.87;69.33;101198.06;4992846;28;20030;-73
2021/07/16 01:07:31;;;;;;;15.55;5.85;;;;;;;21.86;69.29;101201.56;4993058;28;20088;-73
2021/07/16 01:09:56;;;;;;;14.23;5.68;;;;;;;21.81;69.40;101191.88;4995232;28;20421;-73
2021/07/16 01:12:22;;;;;;;15.70;5.68;;;;;;;21.81;69.05;101189.25;5004552;28;20053;-73
2021/07/16 01:14:48;;;;;;;16.67;5.60;;;;;;;21.76;69.62;101183.97;5014699;28;20448;-73
2021/07/16 01:17:14;;;;;;;13.20;5.13;;;;;;;21.73;69.29;101199.63;4998590;28;20025;-73
2021/07/16 01:19:52;;;;;;;17.85;5.63;;;;;;;21.70;69.58;101194.34;4998393;28;20026;-73
2021/07/16 01:22:17;;;;;;;12.63;5.00;;;;;;;21.70;69.60;101194.34;5015119;28;20100;-73
2021/07/16 01:24:44;;;;;;;14.02;5.60;;;;;;;21.67;69.75;101199.56;5030747;28;20073;-73
2021/07/16 01:27:10;;;;;;;16.35;5.63;;;;;;;21.64;69.45;101204.75;5014453;28;20030;-73
2021/07/16 01:29:36;;;;;;;20.48;5.80;;;;;;;21.58;69.58;101200.31;5014431;28;20022;-73
2021/07/16 01:32:03;;;;;;;15.00;5.53;;;;;;;21.56;69.58;101208.13;4997583;28;20025;-73
2021/07/16 01:34:29;;;;;;;14.27;5.28;;;;;;;21.54;69.54;101207.25;4997830;28;20033;-73
2021/07/16 01:36:54;;;;;;;14.18;5.43;;;;;;;21.52;69.47;101206.34;5015453;28;20560;-73
2021/07/16 01:39:20;;;;;;;19.48;6.13;;;;;;;21.53;69.36;101208.09;5015098;28;20049;-73
2021/07/16 01:41:45;;;;;;;15.75;5.32;;;;;;;21.51;69.10;101204.56;5015552;28;20108;-73
2021/07/16 01:44:10;;;;;;;13.00;5.05;;;;;;;21.50;69.05;101208.06;5014060;28;20021;-72
2021/07/16 01:46:36;;;;;;;16.25;5.47;;;;;;;21.47;69.30;101218.50;5014046;28;20494;-73
2021/07/16 01:49:02;;;;;;;13.85;5.07;;;;;;;21.45;69.50;101214.97;5014095;28;20141;-73
2021/07/16 01:51:29;;;;;;;13.60;5.43;;;;;;;21.37;69.56;101212.28;5013304;28;20057;-73
2021/07/16 01:53:55;;;;;;;13.90;5.25;;;;;;;21.34;69.40;101206.09;4996456;28;20022;-73
2021/07/16 01:56:22;;;;;;;13.65;5.00;;;;;;;21.32;69.49;101203.47;5012610;28;20162;-73
2021/07/16 01:58:48;;;;;;;17.00;5.10;;;;;;;21.31;69.30;101213.06;5021663;28;20196;-73
2021/07/16 02:01:16;;;;;;;14.75;6.15;;;;;;;21.31;69.35;101218.28;5013135;28;20515;-73
2021/07/16 02:03:45;;;;;;;23.00;6.28;;;;;;;21.34;69.32;101216.56;5014944;28;20103;-73
2021/07/16 02:06:12;;;;;;;15.45;5.45;;;;;;;21.29;69.36;101214.78;5030225;28;20026;-74
2021/07/16 02:08:40;;;;;;;16.63;5.82;;;;;;;21.29;69.18;101220.00;5013710;28;20029;-73
2021/07/16 02:11:06;;;;;;;15.63;7.00;;;;;;;21.28;69.46;101222.63;5014400;28;20022;-73
2021/07/16 02:13:32;;;;;;;18.38;5.13;;;;;;;21.26;69.32;101219.97;4996970;28;20034;-73
2021/07/16 02:15:58;;;;;;;18.67;5.65;;;;;;;21.27;68.91;101216.50;4996698;28;20037;-72
2021/07/16 02:18:24;;;;;;;17.63;5.18;;;;;;;21.21;69.20;101215.53;5014475;28;20053;-72
2021/07/16 02:20:52;;;;;;;15.63;6.25;;;;;;;21.20;69.26;101225.13;4979753;28;20049;-72
2021/07/16 02:23:20;;;;;;;16.17;5.60;;;;;;;21.17;69.15;101225.09;4997115;28;20026;-72
2021/07/16 02:25:46;;;;;;;15.77;5.22;;;;;;;21.14;69.09;101230.28;4997209;28;20372;-72
2021/07/16 02:28:17;;;;;;;12.50;5.60;;;;;;;21.13;68.93;101229.38;4996487;28;20049;-72
2021/07/16 02:30:43;;;;;;;15.60;5.43;;;;;;;21.12;69.18;101232.00;4996899;28;20018;-71
2021/07/16 02:33:09;;;;;;;15.32;5.18;;;;;;;21.09;68.96;101231.94;5014223;28;20072;-71
2021/07/16 02:35:35;;;;;;;16.02;4.90;;;;;;;21.09;68.95;101234.56;5013104;28;20026;-71
2021/07/16 02:38:02;;;;;;;18.45;5.75;;;;;;;21.06;68.98;101226.66;5014078;28;20034;-71
2021/07/16 02:40:28;;;;;;;11.18;5.68;;;;;;;21.04;69.07;101233.63;5013200;28;20108;-72
2021/07/16 02:42:53;;;;;;;17.65;5.72;;;;;;;21.00;69.15;101238.81;5012913;28;20096;-73
2021/07/16 02:45:21;;;;;;;11.55;5.18;;;;;;;20.96;69.24;101237.00;5012701;28;20478;-71
2021/07/16 02:47:47;;;;;;;15.00;5.22;;;;;;;20.92;69.46;101240.44;4995697;28;20072;-71
2021/07/16 02:50:15;;;;;;;17.17;5.68;;;;;;;20.91;69.57;101243.91;4994256;28;20503;-71
2021/07/16 02:52:41;;;;;;;17.92;5.82;;;;;;;20.90;69.33;101242.13;4995958;28;20061;-71
2021/07/16 02:55:08;;;;;;;17.48;5.18;;;;;;;20.85;69.55;101238.56;5009340;28;20523;-71
2021/07/16 02:57:33;;;;;;;16.67;5.88;;;;;;;20.88;69.30;101236.00;5012914;28;20121;-71
2021/07/16 02:59:59;;;;;;;12.95;5.38;;;;;;;20.87;68.81;101242.09;5012407;28;20480;-71
2021/07/16 03:02:29;;;;;;;19.17;5.72;;;;;;;20.86;68.82;101240.31;4995817;28;20017;-71
2021/07/16 03:04:55;;;;;;;18.73;5.80;;;;;;;20.84;68.70;101242.03;4995958;28;20095;-71
2021/07/16 03:07:21;;;;;;;20.38;5.35;;;;;;;20.82;68.83;101249.84;5012306;28;20033;-71
2021/07/16 03:09:47;;;;;;;14.45;4.93;;;;;;;20.78;68.67;101255.00;4996228;28;20030;-71
2021/07/16 03:12:12;;;;;;;18.80;4.88;;;;;;;20.77;68.88;101255.84;5012567;28;20494;-71
2021/07/16 03:14:38;;;;;;;12.02;5.50;;;;;;;20.75;68.93;101262.78;5012542;28;20064;-71
2021/07/16 03:17:04;;;;;;;15.98;5.38;;;;;;;20.73;68.80;101261.03;5013353;28;20061;-72
2021/07/16 03:19:30;;;;;;;21.05;5.95;;;;;;;20.73;69.07;101270.59;4995858;28;20097;-71
2021/07/16 03:21:55;;;;;;;19.60;5.63;;;;;;;20.68;68.91;101267.94;5013542;28;20109;-71
2021/07/16 03:24:21;;;;;;;16.95;5.20;;;;;;;20.70;68.53;101271.44;5008778;28;20138;-71
2021/07/16 03:26:46;;;;;;;13.10;5.47;;;;;;;20.69;68.74;101269.69;4992327;28;20038;-71
2021/07/16 03:29:13;;;;;;;10.77;4.72;;;;;;;20.66;68.98;101269.59;4992280;28;20081;-71
2021/07/16 03:31:39;;;;;;;16.33;5.07;;;;;;;20.67;68.74;101271.38;4992109;28;20097;-71
2021/07/16 03:34:05;;;;;;;12.48;4.72;;;;;;;20.69;68.91;101269.69;4990687;28;20141;-71
2021/07/16 03:36:31;;;;;;;13.63;5.05;;;;;;;20.72;68.81;101269.75;4990965;28;20030;-71
2021/07/16 03:38:56;;;;;;;14.55;5.35;;;;;;;20.72;68.89;101266.22;4991974;28;20361;-72
2021/07/16 03:41:22;;;;;;;17.65;6.03;;;;;;;20.73;68.97;101271.50;4992108;28;20022;-72
2021/07/16 03:43:48;;;;;;;18.15;6.28;;;;;;;20.67;69.02;101263.50;5006916;28;20084;-72
2021/07/16 03:46:16;;;;;;;16.42;4.70;;;;;;;20.67;69.00;101271.38;4992097;28;20061;-71
2021/07/16 03:48:42;;;;;;;14.38;4.70;;;;;;;20.67;69.13;101271.38;5007324;28;20027;-71
2021/07/16 03:51:07;;;;;;;19.15;5.35;;;;;;;20.72;68.85;101271.47;5007180;28;20431;-71
2021/07/16 03:53:32;;;;;;;19.63;5.32;;;;;;;20.70;68.86;101266.22;4991733;28;20456;-71
2021/07/16 03:55:58;;;;;;;19.13;4.70;;;;;;;20.70;68.84;101271.44;4991889;28;20153;-71
2021/07/16 03:58:23;;;;;;;15.50;5.30;;;;;;;20.66;68.86;101279.22;4991826;28;20121;-71
2021/07/16 04:00:49;;;;;;;17.75;5.75;;;;;;;20.62;68.90;101278.25;5006796;28;20110;-71
2021/07/16 04:03:16;;;;;;;14.52;4.78;;;;;;;20.63;68.91;101280.03;4990363;28;20041;-72
2021/07/16 04:05:41;;;;;;;14.88;5.38;;;;;;;20.62;68.95;101277.41;4991335;28;20062;-72
2021/07/16 04:08:09;;;;;;;16.38;4.95;;;;;;;20.63;68.93;101277.41;4991834;28;20132;-72
2021/07/16 04:10:37;;;;;;;15.32;4.97;;;;;;;20.67;68.98;101276.59;4991670;28;20494;-72
2021/07/16 04:13:06;;;;;;;11.20;4.90;;;;;;;20.68;69.17;101267.94;4990613;28;20025;-72
2021/07/16 04:15:32;;;;;;;15.13;5.50;;;;;;;20.68;69.06;101273.16;4990249;28;20499;-72
2021/07/16 04:17:59;;;;;;;17.70;5.00;;;;;;;20.72;68.91;101274.97;4990568;28;20277;-72
2021/07/16 04:20:26;;;;;;;13.85;5.28;;;;;;;20.78;68.41;101275.94;4990880;28;20037;-72
2021/07/16 04:22:52;;;;;;;13.98;4.65;;;;;;;20.77;68.58;101276.78;4991665;28;20071;-71
2021/07/16 04:25:18;;;;;;;14.10;4.57;;;;;;;20.76;68.40;101269.78;5009384;28;20436;-71
2021/07/16 04:27:46;;;;;;;15.40;5.07;;;;;;;20.75;68.26;101283.75;5012791;28;20049;-72
2021/07/16 04:30:12;;;;;;;17.13;5.22;;;;;;;20.70;68.56;101281.91;5012560;28;20496;-71
2021/07/16 04:32:39;;;;;;;19.27;5.35;;;;;;;20.72;68.79;101285.44;4994560;28;20033;-71
2021/07/16 04:35:05;;;;;;;12.98;4.47;;;;;;;20.71;68.82;101291.53;4978682;28;20034;-73
2021/07/16 04:37:30;;;;;;;17.20;5.95;;;;;;;20.76;68.86;101290.72;5012680;28;20113;-73
2021/07/16 04:39:56;;;;;;;15.55;5.43;;;;;;;20.73;68.73;101292.44;4994780;28;20030;-72
2021/07/16 04:42:22;;;;;;;16.90;4.65;;;;;;;20.74;68.84;101298.53;5012086;28;20029;-72
2021/07/16 04:44:48;;;;;;;18.90;5.50;;;;;;;20.72;68.65;101301.16;4997158;28;20036;-72
2021/07/16 04:47:14;;;;;;;17.15;5.15;;;;;;;20.72;68.49;101303.78;5015934;28;20025;-72
2021/07/16 04:49:39;;;;;;;18.15;5.40;;;;;;;20.65;68.29;101294.00;5013946;28;20030;-72
2021/07/16 04:52:05;;;;;;;13.85;4.95;;;;;;;20.65;68.00;101294.00;4997477;28;20037;-72
2021/07/16 04:54:31;;;;;;;20.42;5.00;;;;;;;20.69;68.38;101298.47;5016685;28;20392;-72
2021/07/16 04:56:57;;;;;;;18.17;5.22;;;;;;;20.70;68.11;101300.25;4997804;28;20018;-72
2021/07/16 04:59:23;;;;;;;15.85;5.47;;;;;;;20.72;68.29;101301.16;5026298;28;20468;-72
2021/07/16 05:01:49;;;;;;;14.30;4.40;;;;;;;20.77;68.16;101302.97;4997571;28;20030;-72
2021/07/16 05:04:16;;;;;;;16.80;5.03;;;;;;;20.79;68.24;101311.75;5015494;28;20068;-72
2021/07/16 05:06:41;;;;;;;16.90;5.25;;;;;;;20.80;68.49;101305.66;5014273;28;20133;-72
2021/07/16 05:09:07;;;;;;;12.75;5.15;;;;;;;20.84;68.30;101310.09;4997775;28;20104;-73
2021/07/16 05:11:33;;;;;;;17.52;5.45;;;;;;;20.86;68.22;101309.25;5015401;28;20079;-72
2021/07/16 05:13:59;;;;;;;16.55;5.50;;;;;;;20.89;68.33;101313.69;5015306;28;20029;-72
2021/07/16 05:16:25;;;;;;;15.25;6.13;;;;;;;20.86;68.16;101313.63;5014070;28;20428;-72
2021/07/16 05:18:50;;;;;;;19.10;5.55;;;;;;;20.83;68.52;101318.81;5019683;28;20064;-72
2021/07/16 05:21:15;;;;;;;16.80;5.45;;;;;;;20.85;68.45;101322.34;5013744;28;20053;-72
2021/07/16 05:23:42;;;;;;;21.58;6.00;;;;;;;20.78;68.68;101325.66;5010211;28;20097;-73
2021/07/16 05:26:08;;;;;;;22.27;5.82;;;;;;;20.79;68.80;101327.47;4977689;28;20683;-73
2021/07/16 05:28:34;;;;;;;19.13;5.68;;;;;;;20.81;68.74;101323.16;4993862;28;20026;-73
2021/07/16 05:31:00;;;;;;;20.10;5.78;;;;;;;20.83;68.66;101319.69;4993861;28;20105;-73
2021/07/16 05:33:26;;;;;;;18.17;5.75;;;;;;;20.79;68.69;101322.22;4992939;28;20027;-72
2021/07/16 05:35:52;;;;;;;18.05;5.90;;;;;;;20.79;68.58;101327.47;5009729;28;20034;-72
2021/07/16 05:38:21;;;;;;;19.15;5.80;;;;;;;20.84;68.44;101325.81;4994987;28;20029;-72
2021/07/16 05:40:48;;;;;;;16.48;5.85;;;;;;;20.87;68.36;101331.09;4994130;28;20042;-72
2021/07/16 05:43:13;;;;;;;15.50;5.80;;;;;;;20.84;68.05;101331.06;4995259;28;20538;-73
2021/07/16 05:45:40;;;;;;;13.70;5.78;;;;;;;20.87;68.15;101328.47;4994875;28;20113;-72
2021/07/16 05:48:09;;;;;;;16.10;5.47;;;;;;;20.89;68.20;101334.63;4993447;28;20026;-72
2021/07/16 05:50:39;;;;;;;18.75;5.40;;;;;;;20.85;68.35;101330.19;5009824;28;20396;-72
2021/07/16 05:53:05;;;;;;;20.00;5.97;;;;;;;20.88;68.36;101338.09;4995150;28;21515;-72
2021/07/16 05:55:31;;;;;;;19.08;6.47;;;;;;;20.90;68.08;101341.63;5008826;28;20073;-73
2021/07/16 05:57:56;;;;;;;21.58;5.25;;;;;;;20.87;68.00;101347.69;4993794;28;20022;-72
2021/07/16 06:00:22;;;;;;;17.98;6.45;;;;;;;20.93;67.86;101346.03;4995008;28;20026;-72
2021/07/16 06:02:47;;;;;;;19.15;5.55;;;;;;;20.88;68.16;101343.34;5009943;28;20023;-72
2021/07/16 06:05:13;;;;;;;15.13;5.80;;;;;;;20.92;68.22;101347.78;4993626;28;20092;-72
2021/07/16 06:07:40;;;;;;;24.27;6.88;;;;;;;20.96;68.20;101352.22;4994838;28;20022;-72
2021/07/16 06:10:06;;;;;;;15.73;6.07;;;;;;;20.99;67.41;101348.75;4994864;28;20037;-72
2021/07/16 06:12:32;;;;;;;25.38;7.05;;;;;;;20.92;68.17;101355.63;4994777;28;20068;-72
2021/07/16 06:14:58;;;;;;;18.25;5.60;;;;;;;20.89;68.26;101352.97;4993238;28;20037;-72
2021/07/16 06:17:25;;;;;;;19.63;6.57;;;;;;;20.97;68.26;101353.97;5009765;28;20018;-72
2021/07/16 06:19:50;;;;;;;21.35;5.95;;;;;;;21.05;67.74;101355.84;4993467;28;20033;-72
2021/07/16 06:22:16;;;;;;;18.13;6.35;;;;;;;21.10;67.84;101359.41;4987559;28;20018;-72
2021/07/16 06:24:42;;;;;;;22.45;6.05;;;;;;;21.12;68.19;101357.72;4971106;28;20097;-72
2021/07/16 06:27:08;;;;;;;23.05;6.10;;;;;;;21.06;67.53;101357.59;4973107;28;20117;-73
2021/07/16 06:29:34;;;;;;;20.38;6.20;;;;;;;21.10;68.15;101360.28;4968463;28;20134;-72
2021/07/16 06:31:59;;;;;;;16.58;6.20;;;;;;;21.01;68.18;101361.03;5004814;28;20050;-72
2021/07/16 06:34:25;;;;;;;16.08;5.40;;;;;;;21.08;68.34;101359.38;4973471;28;20169;-72
2021/07/16 06:36:51;;;;;;;24.83;6.40;;;;;;;21.14;68.50;101356.00;4972315;28;20026;-72
2021/07/16 06:39:17;;;;;;;14.98;5.57;;;;;;;21.24;68.35;101360.53;4969999;28;20046;-72
2021/07/16 06:41:42;;;;;;;21.30;5.53;;;;;;;21.30;68.06;101360.63;5004654;28;20029;-72
2021/07/16 06:44:10;;;;;;;18.08;5.82;;;;;;;21.43;68.15;101373.91;4973241;28;20035;-72
2021/07/16 06:46:36;;;;;;;22.23;5.95;;;;;;;21.51;68.25;101377.53;5004051;28;20035;-72
2021/07/16 06:49:03;;;;;;;21.55;5.38;;;;;;;21.54;67.86;101382.84;5001181;28;20488;-72
2021/07/16 06:51:30;;;;;;;19.85;5.53;;;;;;;21.63;68.05;101382.13;5004353;28;20077;-73
2021/07/16 06:53:56;;;;;;;18.10;5.88;;;;;;;21.69;67.01;101386.56;4968696;28;20035;-72
2021/07/16 06:56:22;;;;;;;22.30;5.90;;;;;;;21.74;67.25;101379.69;4972988;28;20428;-73
2021/07/16 06:58:51;;;;;;;21.10;6.60;;;;;;;21.73;66.77;101388.38;4971153;28;20065;-73
2021/07/16 07:01:18;;;;;;;18.23;5.22;;;;;;;21.72;67.20;101386.63;5004726;28;20513;-73
2021/07/16 07:03:43;;;;;;;14.70;5.43;;;;;;;21.78;67.47;101392.00;4988108;28;20035;-73
2021/07/16 07:06:09;;;;;;;25.73;6.40;;;;;;;21.73;66.56;101388.38;4974595;28;20175;-72
2021/07/16 07:08:35;;;;;;;19.73;5.35;;;;;;;21.65;66.32;101395.25;5003881;28;20047;-72
2021/07/16 07:11:01;;;;;;;20.30;6.55;;;;;;;21.58;66.23;101395.13;4972802;28;20015;-73
2021/07/16 07:13:27;;;;;;;21.05;6.20;;;;;;;21.53;67.14;101396.78;5005737;28;20118;-73
2021/07/16 07:15:52;;;;;;;26.00;6.13;;;;;;;21.56;67.58;101396.84;5005649;28;20033;-73
2021/07/16 07:18:17;;;;;;;19.15;6.53;;;;;;;21.64;66.96;101409.22;5000738;28;20073;-73
2021/07/16 07:20:43;;;;;;;17.90;6.03;;;;;;;21.66;67.31;101407.50;4969718;28;20042;-73
2021/07/16 07:23:08;;;;;;;23.95;6.50;;;;;;;21.78;67.20;101418.22;4986208;28;20109;-73
2021/07/16 07:25:34;;;;;;;16.33;6.15;;;;;;;21.87;67.21;101428.84;4991896;28;20185;-73
2021/07/16 07:28:00;;;;;;;19.65;5.82;;;;;;;21.92;66.48;101414.91;4996414;28;20041;-73
2021/07/16 07:30:26;;;;;;;14.52;5.57;;;;;;;21.93;67.02;101416.66;5012100;28;20034;-73
2021/07/16 07:32:51;;;;;;;15.65;5.80;;;;;;;21.97;67.28;101423.72;5012902;28;20018;-73
2021/07/16 07:35:17;;;;;;;22.13;6.68;;;;;;;22.02;67.11;101427.28;5012164;28;20030;-73
2021/07/16 07:37:42;;;;;;;17.88;5.28;;;;;;;22.02;66.86;101424.66;5013134;28;20379;-73
2021/07/16 07:40:11;;;;;;;26.92;7.07;;;;;;;22.11;66.61;101421.28;5012029;28;20029;-74
2021/07/16 07:42:37;;;;;;;18.23;6.53;;;;;;;22.17;67.14;101417.00;4995761;28;20526;-73
2021/07/16 07:45:03;;;;;;;20.42;6.45;;;;;;;22.30;66.94;101427.66;5011902;28;20029;-73
2021/07/16 07:47:32;;;;;;;19.38;6.75;;;;;;;22.34;65.77;101424.22;4995162;28;20060;-73
2021/07/16 07:50:05;;;;;;;22.45;7.18;;;;;;;22.37;65.47;101429.50;5013126;28;20040;-74
2021/07/16 07:52:32;;;;;;;18.20;6.15;;;;;;;22.36;65.61;101432.97;4994612;28;20037;-73
2021/07/16 07:54:57;;;;;;;22.75;6.82;;;;;;;22.39;65.30;101426.91;5028326;28;20113;-74
2021/07/16 07:57:23;;;;;;;19.75;5.57;;;;;;;22.39;66.01;101433.03;5012828;28;20114;-74
2021/07/16 08:03:10;;;;;;;25.75;5.22;;;;;;;22.54;65.96;101431.47;5011236;28;20037;-74
2021/07/16 08:05:35;;;;;;;13.85;5.40;;;;;;;22.55;65.87;101438.50;4993019;28;20105;-74
2021/07/16 08:08:03;;;;;;;20.08;5.88;;;;;;;22.58;65.92;101449.03;5011904;28;20570;-75
2021/07/16 08:10:28;;;;;;;15.93;5.43;;;;;;;22.64;66.60;101443.84;5011813;28;20109;-75
2021/07/16 08:12:55;;;;;;;21.10;7.32;;;;;;;22.71;66.11;101457.94;5009623;28;20117;-75
2021/07/16 08:15:21;;;;;;;17.27;6.00;;;;;;;22.74;66.21;101456.22;4994344;28;20041;-75
2021/07/16 08:17:47;;;;;;;15.35;6.43;;;;;;;22.86;66.62;101449.38;4993940;28;20030;-74
2021/07/16 08:20:13;;;;;;;18.00;6.05;;;;;;;22.97;65.81;101462.59;4997035;28;20395;-73
2021/07/16 08:22:40;;;;;;;23.88;7.13;;;;;;;23.00;65.44;101445.16;4998046;28;20030;-73
2021/07/16 08:25:06;;;;;;;18.98;6.35;;;;;;;23.04;64.37;101454.81;5015656;28;20045;-74
2021/07/16 08:27:32;;;;;;;25.48;6.57;;;;;;;23.07;63.53;101453.97;4997824;28;20034;-74
2021/07/16 08:29:58;;;;;;;21.00;5.80;;;;;;;23.14;65.06;101455.78;5015083;28;20102;-74
2021/07/16 08:32:23;;;;;;;17.40;5.95;;;;;;;23.24;64.56;101464.69;5013949;28;20109;-74
2021/07/16 08:34:49;;;;;;;25.58;6.63;;;;;;;23.30;63.96;101454.22;5014759;28;20065;-74
2021/07/16 08:37:14;;;;;;;16.98;6.25;;;;;;;23.28;63.42;101450.72;5014832;28;20175;-74
2021/07/16 08:39:40;;;;;;;26.60;7.78;;;;;;;23.33;64.73;101446.38;5014468;28;20033;-74
2021/07/16 08:42:06;;;;;;;19.35;6.57;;;;;;;23.40;64.14;101456.94;5012720;28;20530;-74
2021/07/16 08:44:34;;;;;;;17.27;5.55;;;;;;;23.42;63.15;101449.94;4996950;28;20442;-74
2021/07/16 08:47:00;;;;;;;21.05;5.80;;;;;;;23.54;64.65;101450.03;4996103;28;20025;-74
2021/07/16 08:49:25;;;;;;;19.25;5.82;;;;;;;23.67;64.36;101452.78;5013347;28;20029;-74
2021/07/16 08:51:51;;;;;;;22.75;6.63;;;;;;;23.74;62.29;101457.19;4996559;28;20419;-74
2021/07/16 08:54:18;;;;;;;23.92;6.47;;;;;;;23.73;62.19;101458.97;5013526;28;20030;-74
2021/07/16 08:56:45;;;;;;;17.85;6.00;;;;;;;23.78;62.40;101459.88;5012551;28;20264;-74
2021/07/16 08:59:13;;;;;;;20.38;6.22;;;;;;;23.84;63.39;101464.28;4995759;28;20040;-73
2021/07/16 09:01:40;;;;;;;17.45;5.88;;;;;;;23.91;62.98;101460.88;5004145;28;20033;-75
2021/07/16 09:04:07;;;;;;;19.65;6.40;;;;;;;24.04;63.02;101466.25;5013313;28;20041;-75
2021/07/16 09:06:44;;;;;;;23.55;5.57;;;;;;;24.13;63.06;101466.28;5012910;28;20076;-73
2021/07/16 09:09:35;;;;;;;19.65;6.60;;;;;;;24.22;61.67;101465.44;4996474;28;20041;-75
2021/07/16 09:12:05;;;;;;;18.73;5.85;;;;;;;24.28;61.60;101459.34;4994729;28;20033;-74
2021/07/16 09:14:31;;;;;;;21.75;5.32;;;;;;;24.33;61.15;101465.50;4996327;28;20026;-76
2021/07/16 09:17:09;;;;;;;20.83;6.20;;;;;;;24.38;60.93;101466.41;5014363;28;20160;-75
2021/07/16 09:19:38;;;;;;;23.52;5.95;;;;;;;24.46;60.48;101456.81;5011918;28;20033;-75
2021/07/16 09:22:22;;;;;;;19.85;5.70;;;;;;;24.52;61.11;101463.84;4990410;28;20015;-75
2021/07/16 09:24:56;;;;;;;22.20;5.95;;;;;;;24.66;60.87;101466.53;5017891;28;20070;-75
2021/07/16 09:27:32;;;;;;;20.27;5.63;;;;;;;24.72;60.63;101466.56;5017046;28;20045;-76
2021/07/16 09:30:17;;;;;;;28.98;5.97;;;;;;;24.84;61.38;101470.13;4993552;28;20112;-76
2021/07/16 09:32:45;;;;;;;19.48;5.55;;;;;;;24.97;60.58;101471.94;5011929;28;20037;-75
2021/07/16 09:35:37;;;;;;;13.60;5.18;;;;;;;25.15;60.16;101464.94;5012196;28;20037;-76
2021/07/16 09:38:06;;;;;;;17.67;6.22;;;;;;;25.37;59.82;101472.00;4987161;28;20076;-75
2021/07/16 09:40:38;;;;;;;17.05;5.65;;;;;;;25.49;59.94;101470.28;5012734;28;20116;-72
2021/07/16 09:43:07;;;;;;;20.95;5.90;;;;;;;25.42;59.60;101479.91;4994717;28;20037;-72
2021/07/16 09:45:34;;;;;;;17.92;5.65;;;;;;;25.38;59.50;101473.75;5011192;28;20029;-74
2021/07/16 09:48:21;;;;;;;22.38;5.93;;;;;;;25.54;59.72;101471.16;4994413;28;20372;-74
2021/07/16 09:50:46;;;;;;;14.63;5.60;;;;;;;25.82;59.22;101473.78;4992457;28;20030;-74
2021/07/16 09:53:15;;;;;;;14.77;5.13;;;;;;;26.05;58.09;101470.25;4979306;28;20391;-74
2021/07/16 09:55:41;;;;;;;17.13;5.43;;;;;;;26.31;57.48;101466.69;4995260;28;20372;-74
2021/07/16 09:58:22;;;;;;;19.67;6.18;;;;;;;26.60;57.19;101463.03;4996503;28;20030;-74
2021/07/16 10:00:50;;;;;;;26.48;6.60;;;;;;;26.77;56.78;101461.19;4995521;28;20029;-74
2021/07/16 10:03:16;;;;;;;17.75;5.93;;;;;;;26.79;55.83;101458.56;4990193;28;20044;-74
2021/07/16 10:05:42;;;;;;;18.85;6.40;;;;;;;26.97;54.79;101455.81;4992643;28;20030;-74
2021/07/16 10:08:08;;;;;;;20.88;5.75;;;;;;;27.10;55.44;101454.00;4995250;28;21058;-75
2021/07/16 10:10:34;;;;;;;16.45;5.55;;;;;;;27.18;55.23;101445.13;5012877;28;20057;-74
2021/07/16 10:13:00;;;;;;;23.98;6.03;;;;;;;27.17;54.81;101443.38;4995007;28;20054;-74
2021/07/16 10:15:26;;;;;;;19.70;6.50;;;;;;;27.19;55.60;101452.16;4994324;28;20033;-74
2021/07/16 10:17:53;;;;;;;17.45;5.30;;;;;;;27.07;56.25;101448.72;5012960;28;20041;-74
2021/07/16 10:20:19;;;;;;;13.98;5.88;;;;;;;27.15;55.24;101450.44;4995243;28;20399;-75
2021/07/16 10:22:49;;;;;;;18.02;5.70;;;;;;;27.28;55.68;101441.53;4994694;28;20072;-74
2021/07/16 10:25:19;;;;;;;18.40;6.47;;;;;;;27.50;55.12;101451.94;4994029;28;20038;-74
2021/07/16 10:27:45;;;;;;;14.88;5.40;;;;;;;27.61;54.13;101460.66;4990360;28;20049;-74
2021/07/16 10:30:16;;;;;;;18.08;5.50;;;;;;;27.81;53.53;101462.25;4995242;28;20025;-74
2021/07/16 10:32:47;;;;;;;16.50;5.32;;;;;;;27.87;53.07;101461.31;5011582;28;20026;-74
2021/07/16 10:35:18;;;;;;;15.40;5.53;;;;;;;27.80;53.94;101455.19;5032756;28;20036;-75
2021/07/16 10:37:44;;;;;;;11.90;5.38;;;;;;;27.76;54.04;101456.13;5014970;28;20072;-74
2021/07/16 10:40:44;;;;;;;12.90;5.90;;;;;;;27.75;53.34;101464.94;5014992;28;20029;-74
2021/07/16 10:43:27;;;;;;;15.23;5.60;;;;;;;27.80;53.13;101465.78;5026939;28;20045;-74
2021/07/16 10:45:56;;;;;;;16.02;5.57;;;;;;;27.68;53.37;101466.81;5010823;28;20041;-75
2021/07/16 10:48:23;;;;;;;15.95;5.25;;;;;;;27.56;53.67;101465.13;5010905;28;20021;-74
2021/07/16 10:50:51;;;;;;;14.35;5.13;;;;;;;27.45;54.25;101466.94;5012531;28;20032;-74
2021/07/16 10:53:31;;;;;;;14.75;5.97;;;;;;;27.34;55.27;101473.22;5011316;28;20054;-75
2021/07/16 10:55:56;;;;;;;18.05;5.88;;;;;;;27.36;56.00;101466.13;5012520;28;20053;-74
2021/07/16 10:58:26;;;;;;;14.53;4.90;;;;;;;27.50;55.13;101473.13;5012461;28;20369;-74
2021/07/16 11:00:56;;;;;;;11.80;5.32;;;;;;;27.69;54.06;101464.13;5011381;28;20738;-74
2021/07/16 11:03:38;;;;;;;20.05;5.72;;;;;;;27.88;53.30;101478.97;5012291;28;20130;-74
2021/07/16 11:06:04;;;;;;;13.43;4.55;;;;;;;27.95;53.90;101476.22;4982429;28;20029;-74
2021/07/16 11:08:40;;;;;;;12.90;5.05;;;;;;;28.07;54.21;101480.53;5024871;28;20079;-74
2021/07/16 11:11:16;;;;;;;14.90;5.47;;;;;;;28.18;53.44;101483.09;5025639;28;20018;-75
2021/07/16 11:13:53;;;;;;;46.45;17.42;;;;;;;28.37;54.26;101482.88;5019920;28;20049;-75
2021/07/16 11:16:19;;;;;;;12.68;5.05;;;;;;;28.50;52.23;101479.19;5002617;28;20159;-74
2021/07/16 11:18:54;;;;;;;11.32;4.88;;;;;;;28.71;53.06;101482.44;5014649;28;20105;-77
2021/07/16 11:21:47;;;;;;;17.27;5.70;;;;;;;28.80;52.72;101485.00;5004110;28;20033;-74